Time;durP1;ratioP1;P1;durP2;ratioP2;P2;SDS_P1;SDS_P2;PMS_P1;PMS_P2;Temp;Humidity;BMP_temperature;BMP_pressure;BME280_temperature;BME280_humidity;BME280_pressure;Samples;Min_cycle;Max_cycle;Signal;HPM_P1;HPM_P2
2021/03/08 00:00:37;;;;;;;24.90;13.43;;;1.10;99.90;;;;;;5081658;28;20111;-64
2021/03/08 00:03:05;;;;;;;28.50;12.75;;;1.10;99.90;;;;;;5080928;28;20033;-64
2021/03/08 00:05:31;;;;;;;33.65;14.45;;;1.00;99.90;;;;;;5079745;28;20040;-64
2021/03/08 00:07:56;;;;;;;28.77;14.13;;;1.10;99.90;;;;;;5080765;28;20078;-64
2021/03/08 00:10:22;;;;;;;29.48;14.93;;;1.00;99.90;;;;;;5081018;28;20036;-64
2021/03/08 00:12:49;;;;;;;32.90;15.70;;;1.00;99.90;;;;;;5081049;28;20407;-64
2021/03/08 00:15:16;;;;;;;29.70;15.25;;;1.00;99.90;;;;;;5071031;28;20032;-64
2021/03/08 00:17:42;;;;;;;28.45;13.98;;;1.00;99.90;;;;;;5068100;28;20044;-64
2021/03/08 00:20:10;;;;;;;31.75;14.55;;;1.00;99.90;;;;;;5067457;28;20036;-64
2021/03/08 00:22:37;;;;;;;26.15;14.25;;;1.10;99.90;;;;;;5067798;28;20060;-64
2021/03/08 00:25:06;;;;;;;27.83;14.05;;;1.10;99.90;;;;;;5067742;28;20408;-64
2021/03/08 00:27:32;;;;;;;34.03;15.82;;;1.10;99.90;;;;;;5060078;28;20040;-64
2021/03/08 00:29:58;;;;;;;26.05;13.88;;;1.10;99.90;;;;;;5066956;28;20029;-64
2021/03/08 00:32:23;;;;;;;32.22;14.48;;;1.10;99.90;;;;;;5067297;28;20040;-64
2021/03/08 00:34:49;;;;;;;29.20;14.40;;;1.10;99.90;;;;;;5066869;28;20040;-64
2021/03/08 00:37:14;;;;;;;30.70;15.60;;;1.10;99.90;;;;;;5066599;28;20039;-64
2021/03/08 00:39:41;;;;;;;30.40;15.80;;;1.10;99.90;;;;;;5067568;28;20488;-64
2021/03/08 00:42:06;;;;;;;36.33;16.75;;;1.00;99.90;;;;;;5067631;28;20036;-64
2021/03/08 00:44:32;;;;;;;34.97;15.02;;;1.00;99.90;;;;;;5066746;28;20044;-64
2021/03/08 00:46:57;;;;;;;34.38;15.60;;;1.00;99.90;;;;;;5065155;28;20044;-64
2021/03/08 00:49:23;;;;;;;28.65;14.90;;;1.00;99.90;;;;;;5065799;28;20037;-64
2021/03/08 00:51:48;;;;;;;33.53;15.38;;;1.00;99.90;;;;;;5066933;28;20032;-64
2021/03/08 00:54:14;;;;;;;29.15;14.73;;;1.10;99.90;;;;;;5066669;28;20488;-64
2021/03/08 00:56:39;;;;;;;39.78;15.27;;;1.00;99.90;;;;;;5066633;28;20037;-64
2021/03/08 00:59:05;;;;;;;29.20;13.95;;;1.00;99.90;;;;;;5067256;28;20064;-64
2021/03/08 01:01:31;;;;;;;66.70;18.05;;;1.00;99.90;;;;;;5066063;28;20117;-64
2021/03/08 01:03:56;;;;;;;35.67;16.38;;;1.00;99.90;;;;;;5066516;28;20043;-65
2021/03/08 01:06:22;;;;;;;38.45;17.58;;;1.00;99.90;;;;;;5066587;28;20048;-65
2021/03/08 01:08:47;;;;;;;40.40;17.10;;;1.00;99.90;;;;;;5067231;28;20032;-64
2021/03/08 01:11:13;;;;;;;40.85;16.25;;;1.00;99.90;;;;;;5066458;28;20118;-64
2021/03/08 01:13:39;;;;;;;36.53;18.13;;;1.00;99.90;;;;;;5067238;28;20094;-64
2021/03/08 01:16:04;;;;;;;36.45;16.85;;;1.00;99.90;;;;;;5066344;28;20609;-65
2021/03/08 01:18:30;;;;;;;46.95;18.60;;;0.90;99.90;;;;;;5063585;28;20066;-64
2021/03/08 01:20:55;;;;;;;39.45;18.80;;;0.90;99.90;;;;;;5066373;28;20407;-64
2021/03/08 01:23:21;;;;;;;41.03;19.50;;;0.90;99.90;;;;;;5066748;28;20032;-64
2021/03/08 01:25:46;;;;;;;41.67;18.42;;;0.90;99.90;;;;;;5065400;28;20032;-64
2021/03/08 01:28:12;;;;;;;45.35;20.38;;;1.00;99.90;;;;;;5066020;28;20105;-64
2021/03/08 01:30:42;;;;;;;51.17;20.60;;;1.00;99.90;;;;;;5065785;28;20492;-64
2021/03/08 01:33:09;;;;;;;51.92;21.35;;;1.00;99.90;;;;;;5066736;28;20040;-64
2021/03/08 01:35:35;;;;;;;49.30;20.20;;;1.00;99.90;;;;;;5065771;28;20047;-64
2021/03/08 01:38:03;;;;;;;50.38;20.85;;;1.00;99.90;;;;;;5065666;28;20044;-64
2021/03/08 01:40:31;;;;;;;52.50;20.73;;;1.00;99.90;;;;;;5065653;28;20124;-64
2021/03/08 01:42:57;;;;;;;49.25;21.85;;;1.00;99.90;;;;;;5065502;28;20041;-64
2021/03/08 01:45:23;;;;;;;49.20;21.23;;;0.90;99.90;;;;;;5065340;28;20041;-64
2021/03/08 01:47:50;;;;;;;53.67;22.88;;;0.80;99.90;;;;;;5065686;28;20634;-64
2021/03/08 01:50:21;;;;;;;52.35;20.92;;;0.90;99.90;;;;;;5065488;28;20045;-64
2021/03/08 01:52:47;;;;;;;58.17;22.38;;;0.90;99.90;;;;;;5065375;28;20040;-64
2021/03/08 01:55:13;;;;;;;51.63;22.73;;;0.90;99.90;;;;;;5066303;28;20033;-64
2021/03/08 01:57:40;;;;;;;55.67;24.95;;;0.90;99.90;;;;;;5065070;28;20043;-64
2021/03/08 02:00:06;;;;;;;51.20;22.20;;;0.80;99.90;;;;;;5066551;28;20048;-65
2021/03/08 02:02:32;;;;;;;60.05;24.08;;;0.90;99.90;;;;;;5063913;28;20044;-65
2021/03/08 02:04:58;;;;;;;50.83;22.00;;;0.90;99.90;;;;;;5065495;28;20036;-65
2021/03/08 02:07:24;;;;;;;56.03;23.42;;;0.90;99.90;;;;;;5065745;28;20101;-65
2021/03/08 02:09:49;;;;;;;54.35;22.73;;;1.00;99.90;;;;;;5065414;28;20039;-64
2021/03/08 02:12:32;;;;;;;61.38;24.08;;;0.90;99.90;;;;;;5070159;28;20097;-64
2021/03/08 02:15:35;;;;;;;64.72;24.17;;;0.90;99.90;;;;;;5065282;28;20052;-64
2021/03/08 02:18:25;;;;;;;49.25;22.42;;;0.80;99.90;;;;;;5063049;28;20500;-64
2021/03/08 02:20:55;;;;;;;53.65;21.58;;;0.90;99.90;;;;;;5065211;28;20550;-64
2021/03/08 02:23:58;;;;;;;53.80;22.88;;;0.90;99.90;;;;;;5065040;28;20035;-64
2021/03/08 02:26:56;;;;;;;54.83;23.52;;;0.90;99.90;;;;;;5065912;28;20119;-65
2021/03/08 02:30:08;;;;;;;49.95;22.15;;;0.90;99.90;;;;;;5051528;28;20104;-64
2021/03/08 02:32:38;;;;;;;53.05;23.70;;;1.00;99.90;;;;;;5060316;28;20127;-64
2021/03/08 02:35:17;;;;;;;54.67;23.52;;;1.00;99.90;;;;;;5064784;28;20419;-64
2021/03/08 02:37:53;;;;;;;60.97;25.83;;;0.90;99.90;;;;;;5065391;28;20037;-64
2021/03/08 02:40:25;;;;;;;61.17;24.90;;;0.90;99.90;;;;;;5058229;28;20035;-65
2021/03/08 02:42:54;;;;;;;62.10;25.42;;;0.90;99.90;;;;;;5073907;28;20056;-64
2021/03/08 02:45:23;;;;;;;56.40;25.35;;;0.80;99.90;;;;;;5064106;28;20044;-64
2021/03/08 02:47:50;;;;;;;62.22;23.58;;;0.90;99.90;;;;;;5058820;28;20068;-64
2021/03/08 02:50:18;;;;;;;49.00;23.95;;;0.90;99.90;;;;;;5058659;28;20043;-64
2021/03/08 02:52:59;;;;;;;57.67;25.50;;;1.00;99.90;;;;;;5065214;28;20044;-64
2021/03/08 02:55:55;;;;;;;64.97;24.88;;;1.00;99.90;;;;;;5057573;28;20071;-65
2021/03/08 02:58:23;;;;;;;63.30;26.10;;;1.00;99.90;;;;;;5049310;28;20037;-63
2021/03/08 03:00:51;;;;;;;64.95;26.20;;;1.10;99.90;;;;;;5064946;28;20098;-64
2021/03/08 03:03:18;;;;;;;59.17;24.83;;;1.00;99.90;;;;;;5064494;28;20278;-64
2021/03/08 03:05:45;;;;;;;53.38;23.42;;;1.00;99.90;;;;;;5065108;28;20473;-64
2021/03/08 03:08:12;;;;;;;58.05;24.52;;;1.00;99.90;;;;;;5064817;28;20489;-65
2021/03/08 03:10:39;;;;;;;58.20;24.35;;;1.10;99.90;;;;;;5065339;28;20044;-63
2021/03/08 03:13:06;;;;;;;48.60;21.58;;;1.10;99.90;;;;;;5064825;28;20072;-64
2021/03/08 03:15:38;;;;;;;59.88;25.58;;;1.10;99.90;;;;;;5064427;28;20371;-64
2021/03/08 03:18:06;;;;;;;60.95;23.83;;;1.10;99.90;;;;;;5063144;28;20033;-64
2021/03/08 03:20:33;;;;;;;56.13;24.42;;;1.10;99.90;;;;;;5064968;28;20047;-64
2021/03/08 03:23:00;;;;;;;65.22;25.73;;;1.00;99.90;;;;;;5065420;28;20049;-64
2021/03/08 03:25:27;;;;;;;58.53;25.67;;;1.10;99.90;;;;;;5056856;28;20041;-64
2021/03/08 03:27:53;;;;;;;63.95;26.17;;;1.00;99.90;;;;;;5064383;28;20075;-64
2021/03/08 03:30:23;;;;;;;62.30;24.42;;;0.90;99.90;;;;;;5063483;28;20044;-64
2021/03/08 03:32:49;;;;;;;57.33;24.38;;;0.90;99.90;;;;;;5063252;28;20040;-64
2021/03/08 03:35:16;;;;;;;65.88;24.23;;;1.00;99.90;;;;;;5064772;28;20048;-64
2021/03/08 03:37:43;;;;;;;57.00;24.38;;;1.00;99.90;;;;;;5064562;28;20120;-64
2021/03/08 03:40:14;;;;;;;64.78;26.15;;;0.90;99.90;;;;;;5064921;28;20040;-64
2021/03/08 03:42:42;;;;;;;62.15;26.23;;;1.00;99.90;;;;;;5064424;28;20082;-64
2021/03/08 03:45:09;;;;;;;59.78;25.33;;;1.00;99.90;;;;;;5063713;28;20115;-65
2021/03/08 03:47:37;;;;;;;56.38;23.42;;;1.10;99.90;;;;;;5063432;28;20504;-64
2021/03/08 03:50:04;;;;;;;58.55;22.95;;;1.10;99.90;;;;;;5062407;28;20481;-64
2021/03/08 03:52:29;;;;;;;57.08;25.70;;;1.10;99.90;;;;;;5067713;28;20121;-64
2021/03/08 03:54:55;;;;;;;58.83;25.45;;;1.10;99.90;;;;;;5067519;28;20516;-64
2021/03/08 03:57:22;;;;;;;59.97;24.65;;;1.10;99.90;;;;;;5068009;28;20032;-64
2021/03/08 03:59:52;;;;;;;53.92;23.77;;;1.10;99.90;;;;;;5068038;28;20119;-64
2021/03/08 04:02:47;;;;;;;53.92;23.73;;;1.10;99.90;;;;;;5066740;28;20032;-64
2021/03/08 04:05:19;;;;;;;57.00;25.40;;;1.10;99.90;;;;;;5067684;28;20131;-64
2021/03/08 04:07:46;;;;;;;58.42;23.60;;;1.10;99.90;;;;;;5068694;28;20146;-64
2021/03/08 04:10:13;;;;;;;59.60;23.52;;;1.10;99.90;;;;;;5068165;28;20037;-64
2021/03/08 04:12:43;;;;;;;65.68;24.98;;;1.00;99.90;;;;;;5068499;28;20033;-65
2021/03/08 04:15:10;;;;;;;55.28;24.15;;;1.00;99.90;;;;;;5067134;28;20047;-64
2021/03/08 04:17:39;;;;;;;59.67;23.95;;;1.10;99.90;;;;;;5064777;28;20093;-64
2021/03/08 04:20:10;;;;;;;60.65;25.17;;;1.00;99.90;;;;;;5068311;28;20050;-64
2021/03/08 04:22:37;;;;;;;59.80;24.38;;;1.00;99.90;;;;;;5067293;28;20190;-64
2021/03/08 04:25:04;;;;;;;57.35;24.27;;;1.00;99.90;;;;;;5068384;28;20103;-65
2021/03/08 04:27:33;;;;;;;58.60;24.30;;;1.00;99.90;;;;;;5069416;28;20055;-65
2021/03/08 04:29:59;;;;;;;60.25;24.23;;;1.10;99.90;;;;;;5074519;28;20041;-65
2021/03/08 04:32:26;;;;;;;58.75;24.83;;;1.10;99.90;;;;;;5066330;28;20088;-64
2021/03/08 04:34:52;;;;;;;67.45;24.40;;;1.10;99.90;;;;;;5067289;28;20427;-65
2021/03/08 04:37:18;;;;;;;60.45;25.20;;;1.10;99.90;;;;;;5067778;28;20507;-64
2021/03/08 04:39:45;;;;;;;56.35;24.42;;;1.00;99.90;;;;;;5067436;28;20036;-65
2021/03/08 04:42:13;;;;;;;67.55;27.15;;;1.00;99.90;;;;;;5067444;28;20651;-64
2021/03/08 04:44:41;;;;;;;62.17;26.20;;;1.00;99.90;;;;;;5067699;28;20051;-64
2021/03/08 04:47:07;;;;;;;62.35;25.10;;;1.10;99.90;;;;;;5072766;28;20081;-64
2021/03/08 04:49:34;;;;;;;51.42;23.77;;;1.10;99.90;;;;;;5067775;28;20064;-64
2021/03/08 04:52:01;;;;;;;58.60;23.60;;;1.00;99.90;;;;;;5067465;28;20099;-64
2021/03/08 04:54:27;;;;;;;54.20;23.02;;;1.10;99.90;;;;;;5068197;28;20040;-64
2021/03/08 04:56:54;;;;;;;65.13;25.17;;;1.10;99.90;;;;;;5066848;28;20458;-64
2021/03/08 04:59:21;;;;;;;56.13;22.50;;;1.00;99.90;;;;;;5067344;28;20064;-64
2021/03/08 05:01:48;;;;;;;54.95;22.98;;;1.10;99.90;;;;;;5066981;28;20075;-64
2021/03/08 05:04:14;;;;;;;54.10;22.95;;;1.10;99.90;;;;;;5066301;28;20424;-65
2021/03/08 05:06:42;;;;;;;55.67;22.92;;;1.10;99.90;;;;;;5066683;28;20036;-64
2021/03/08 05:09:10;;;;;;;55.65;22.60;;;1.10;99.90;;;;;;5066567;28;20130;-65
2021/03/08 05:11:37;;;;;;;55.58;24.48;;;1.10;99.90;;;;;;5066362;28;20072;-64
2021/03/08 05:14:09;;;;;;;53.92;23.50;;;1.10;99.90;;;;;;5067432;28;20036;-64
2021/03/08 05:16:40;;;;;;;46.97;21.90;;;1.20;99.90;;;;;;5064888;28;20044;-64
2021/03/08 05:19:07;;;;;;;55.80;24.38;;;1.20;99.90;;;;;;5065620;28;20040;-64
2021/03/08 05:21:34;;;;;;;55.80;23.55;;;1.20;99.90;;;;;;5066704;28;20152;-64
2021/03/08 05:24:00;;;;;;;56.42;22.55;;;1.20;99.90;;;;;;5066466;28;20052;-64
2021/03/08 05:26:26;;;;;;;53.53;23.55;;;1.20;99.90;;;;;;5066128;28;20056;-65
2021/03/08 05:28:54;;;;;;;52.97;23.88;;;1.20;99.90;;;;;;5066324;28;20370;-64
2021/03/08 05:31:21;;;;;;;57.78;22.65;;;1.20;99.90;;;;;;5065765;28;20381;-64
2021/03/08 05:33:51;;;;;;;53.70;22.35;;;1.20;99.90;;;;;;5066621;28;20490;-64
2021/03/08 05:36:18;;;;;;;48.63;21.73;;;1.30;99.90;;;;;;5064743;28;20512;-62
2021/03/08 05:38:46;;;;;;;56.20;24.38;;;1.20;99.90;;;;;;5066711;28;20086;-62
2021/03/08 05:41:35;;;;;;;62.75;24.67;;;1.20;99.90;;;;;;5067013;28;20033;-62
2021/03/08 05:44:07;;;;;;;55.08;22.90;;;1.30;99.90;;;;;;5065568;28;20536;-62
2021/03/08 05:47:07;;;;;;;61.03;25.60;;;1.30;99.90;;;;;;5064900;28;20086;-60
2021/03/08 05:50:02;;;;;;;59.20;23.85;;;1.30;99.90;;;;;;5061411;28;20676;-64
2021/03/08 05:52:51;;;;;;;61.83;24.95;;;1.20;99.90;;;;;;5066713;28;20090;-64
2021/03/08 05:55:53;;;;;;;61.97;24.67;;;1.20;99.90;;;;;;5053915;28;20049;-64
2021/03/08 05:58:37;;;;;;;61.47;24.98;;;1.20;99.90;;;;;;5020577;28;20041;-62
2021/03/08 06:01:36;;;;;;;53.60;23.33;;;1.20;99.90;;;;;;5064545;28;20037;-64
2021/03/08 06:04:25;;;;;;;48.85;21.48;;;1.20;99.90;;;;;;5065666;28;20063;-64
2021/03/08 06:07:26;;;;;;;51.90;22.05;;;1.30;99.90;;;;;;5064249;28;20040;-64
2021/03/08 06:10:01;;;;;;;52.10;20.10;;;1.20;99.90;;;;;;5058408;28;20076;-64
2021/03/08 06:12:31;;;;;;;50.17;22.55;;;1.30;99.90;;;;;;5065428;28;20503;-64
2021/03/08 06:15:00;;;;;;;46.30;20.27;;;1.30;99.90;;;;;;5065011;28;20036;-64
2021/03/08 06:17:26;;;;;;;51.75;21.83;;;1.30;99.90;;;;;;5064931;28;20044;-64
2021/03/08 06:19:54;;;;;;;44.88;20.05;;;1.30;99.90;;;;;;5064684;28;20043;-64
2021/03/08 06:22:21;;;;;;;44.75;20.38;;;1.30;99.90;;;;;;5057302;28;20032;-63
2021/03/08 06:24:47;;;;;;;47.13;19.52;;;1.30;99.90;;;;;;5064920;28;20185;-65
2021/03/08 06:27:14;;;;;;;47.10;18.98;;;1.30;99.90;;;;;;5064948;28;21477;-64
2021/03/08 06:29:41;;;;;;;46.75;20.15;;;1.30;99.90;;;;;;5065437;28;20048;-64
2021/03/08 06:32:08;;;;;;;46.95;20.27;;;1.30;99.90;;;;;;5064510;28;20692;-64
2021/03/08 06:34:35;;;;;;;53.60;22.02;;;1.40;99.90;;;;;;5065737;28;20115;-64
2021/03/08 06:37:09;;;;;;;50.17;21.83;;;1.40;99.90;;;;;;5064762;28;20041;-63
2021/03/08 06:39:36;;;;;;;46.10;20.80;;;1.40;99.90;;;;;;5065931;28;20036;-64
2021/03/08 06:42:03;;;;;;;55.65;22.75;;;1.50;99.90;;;;;;5064838;28;20496;-65
2021/03/08 06:44:30;;;;;;;53.22;21.58;;;1.50;99.90;;;;;;5064837;28;20051;-64
2021/03/08 06:46:57;;;;;;;49.17;21.38;;;1.50;99.90;;;;;;5063570;28;20155;-65
2021/03/08 06:49:22;;;;;;;55.47;22.77;;;1.60;99.90;;;;;;5064808;28;20182;-65
2021/03/08 06:52:11;;;;;;;68.07;23.23;;;1.60;99.90;;;;;;5065342;28;20111;-65
2021/03/08 06:54:39;;;;;;;59.35;23.60;;;1.60;99.90;;;;;;5058292;28;20037;-65
2021/03/08 06:57:24;;;;;;;55.25;23.45;;;1.70;99.90;;;;;;5065214;28;20048;-65
2021/03/08 07:00:06;;;;;;;53.28;23.02;;;1.50;99.90;;;;;;5065101;28;20035;-64
2021/03/08 07:02:40;;;;;;;62.13;25.17;;;1.50;99.90;;;;;;5056590;28;20037;-63
2021/03/08 07:05:07;;;;;;;59.25;24.58;;;1.60;99.90;;;;;;5065137;28;20032;-63
2021/03/08 07:08:04;;;;;;;62.65;25.40;;;1.60;99.90;;;;;;5064877;28;20039;-63
2021/03/08 07:10:32;;;;;;;60.10;25.13;;;1.60;99.90;;;;;;5065195;28;20028;-63
2021/03/08 07:12:58;;;;;;;63.72;25.38;;;1.60;99.90;;;;;;5064587;28;20047;-62
2021/03/08 07:15:23;;;;;;;57.35;24.73;;;1.50;99.90;;;;;;5063026;28;20044;-65
2021/03/08 07:17:49;;;;;;;60.58;26.00;;;1.60;99.90;;;;;;5065062;28;20039;-69
2021/03/08 07:20:16;;;;;;;59.63;25.65;;;1.60;99.90;;;;;;5066275;28;20497;-64
2021/03/08 07:22:44;;;;;;;69.85;27.50;;;1.60;99.90;;;;;;5057076;28;20028;-64
2021/03/08 07:25:27;;;;;;;68.03;27.38;;;1.60;99.90;;;;;;5065570;28;20327;-64
2021/03/08 07:27:58;;;;;;;63.30;26.13;;;1.50;99.90;;;;;;5068124;28;20488;-64
2021/03/08 07:30:28;;;;;;;71.82;27.63;;;1.40;99.90;;;;;;5068317;28;20074;-64
2021/03/08 07:33:04;;;;;;;68.70;27.95;;;1.50;99.90;;;;;;5067524;28;20086;-64
2021/03/08 07:35:38;;;;;;;73.13;30.50;;;1.70;99.90;;;;;;5067697;28;20051;-64
2021/03/08 07:38:05;;;;;;;84.55;40.58;;;1.70;99.90;;;;;;5068181;28;20118;-64
2021/03/08 07:40:31;;;;;;;78.18;33.38;;;1.70;99.90;;;;;;5067967;28;20040;-64
2021/03/08 07:42:57;;;;;;;73.18;30.70;;;1.70;99.90;;;;;;5068373;28;20499;-64
2021/03/08 07:45:41;;;;;;;65.40;28.50;;;1.80;99.90;;;;;;5066415;28;20044;-64
2021/03/08 07:48:09;;;;;;;65.22;28.55;;;1.70;99.90;;;;;;5064394;28;20033;-64
2021/03/08 07:50:34;;;;;;;61.92;27.30;;;1.80;99.90;;;;;;5067853;28;20037;-64
2021/03/08 07:53:00;;;;;;;62.70;25.90;;;1.80;99.90;;;;;;5067751;28;20040;-64
2021/03/08 07:55:36;;;;;;;59.00;28.00;;;1.80;99.90;;;;;;5067441;28;20617;-64
2021/03/08 07:58:03;;;;;;;108.38;48.45;;;1.90;99.90;;;;;;5060779;28;20108;-64
2021/03/08 08:00:30;;;;;;;61.25;27.85;;;2.00;99.90;;;;;;5066214;28;20056;-64
2021/03/08 08:02:56;;;;;;;59.58;25.92;;;2.10;99.90;;;;;;5060757;28;20033;-64
2021/03/08 08:05:21;;;;;;;53.97;24.65;;;2.10;99.90;;;;;;5067035;28;20136;-64
2021/03/08 08:07:48;;;;;;;50.53;22.33;;;2.00;99.90;;;;;;5067555;28;20120;-64
2021/03/08 08:10:17;;;;;;;53.83;24.30;;;2.00;99.90;;;;;;5067882;28;20448;-64
2021/03/08 08:12:46;;;;;;;54.28;22.75;;;2.00;99.90;;;;;;5068089;28;20542;-64
2021/03/08 08:15:15;;;;;;;58.33;24.58;;;2.00;99.90;;;;;;5067553;28;20060;-64
2021/03/08 08:17:42;;;;;;;52.45;22.38;;;2.00;99.90;;;;;;5061147;28;20550;-65
2021/03/08 08:20:10;;;;;;;51.65;24.80;;;2.10;99.90;;;;;;5067167;28;20036;-64
2021/03/08 08:22:52;;;;;;;73.07;33.03;;;2.00;99.90;;;;;;5066861;28;20401;-64
2021/03/08 08:25:19;;;;;;;60.78;27.05;;;2.10;99.90;;;;;;5061427;28;20061;-64
2021/03/08 08:27:47;;;;;;;58.50;25.17;;;2.20;99.90;;;;;;5066956;28;20040;-64
2021/03/08 08:30:13;;;;;;;58.55;29.45;;;2.20;99.90;;;;;;5066836;28;20047;-65
2021/03/08 08:32:53;;;;;;;57.30;25.50;;;2.30;99.90;;;;;;5067614;28;20044;-64
2021/03/08 08:35:24;;;;;;;52.88;23.67;;;2.30;99.90;;;;;;5061621;28;20032;-65
2021/03/08 08:38:11;;;;;;;52.70;23.80;;;2.40;99.90;;;;;;5050511;23;20045;-79
2021/03/08 08:40:37;;;;;;;;;;;2.50;99.90;;;;;;5023823;28;20044;-79
2021/03/08 08:43:19;;;;;;;60.75;27.38;;;2.50;99.90;;;;;;5028918;28;19964;-79
2021/03/08 08:45:47;;;;;;;52.40;23.73;;;2.50;99.90;;;;;;5027021;28;20510;-80
2021/03/08 08:48:13;;;;;;;60.47;24.98;;;2.60;99.90;;;;;;5028010;28;20041;-79
2021/03/08 08:50:51;;;;;;;59.30;26.05;;;2.60;99.90;;;;;;5028234;28;20049;-80
2021/03/08 08:53:44;;;;;;;50.67;23.08;;;2.40;99.90;;;;;;5028544;28;20705;-79
2021/03/08 08:56:10;;;;;;;46.85;20.95;;;2.50;99.90;;;;;;5026405;28;20128;-80
2021/03/08 08:58:50;;;;;;;53.53;24.45;;;2.40;99.90;;;;;;5027494;28;20116;-79
2021/03/08 09:01:21;;;;;;;47.45;22.42;;;2.10;99.90;;;;;;5026716;28;20084;-79
2021/03/08 09:03:59;;;;;;;48.17;22.63;;;2.10;99.90;;;;;;5027626;28;20041;-79
2021/03/08 09:06:44;;;;;;;54.53;22.20;;;2.10;99.90;;;;;;5034229;28;20099;-80
2021/03/08 09:09:13;;;;;;;45.83;21.33;;;2.10;99.90;;;;;;5027587;28;20079;-80
2021/03/08 09:11:46;;;;;;;43.88;19.30;;;2.10;99.90;;;;;;5033552;28;20104;-80
2021/03/08 09:14:24;;;;;;;44.45;19.30;;;2.20;99.90;;;;;;5028851;28;20065;-80
2021/03/08 09:17:05;;;;;;;38.33;18.38;;;2.30;99.90;;;;;;5019776;28;20037;-81
2021/03/08 09:19:30;;;;;;;39.45;18.67;;;2.50;99.90;;;;;;5024402;28;20134;-79
2021/03/08 09:22:22;;;;;;;38.35;18.25;;;2.60;99.90;;;;;;5027440;28;20532;-80
2021/03/08 09:24:52;;;;;;;38.60;19.05;;;2.70;99.90;;;;;;5024767;28;20046;-81
2021/03/08 09:27:21;;;;;;;42.78;20.10;;;2.80;99.90;;;;;;5021996;28;20523;-79
2021/03/08 09:29:47;;;;;;;36.30;17.95;;;2.80;99.90;;;;;;5026709;28;20096;-80
2021/03/08 09:32:13;;;;;;;45.13;19.38;;;2.90;99.90;;;;;;5026433;28;20036;-81
2021/03/08 09:34:39;;;;;;;39.13;18.23;;;3.10;99.90;;;;;;5030883;28;20043;-81
2021/03/08 09:37:06;;;;;;;33.05;17.15;;;3.40;99.90;;;;;;5026411;28;20502;-79
2021/03/08 09:39:32;;;;;;;35.40;16.77;;;3.50;99.90;;;;;;5026806;28;20041;-80
2021/03/08 09:42:01;;;;;;;47.25;21.40;;;3.60;99.90;;;;;;5027616;28;20033;-80
2021/03/08 09:44:42;;;;;;;39.50;18.35;;;3.70;99.90;;;;;;5027757;28;20662;-81
2021/03/08 09:47:08;;;;;;;31.95;16.45;;;3.80;99.90;;;;;;5023907;28;20037;-79
2021/03/08 09:49:49;;;;;;;25.13;12.43;;;3.80;99.90;;;;;;5026161;28;20732;-81
2021/03/08 09:52:33;;;;;;;26.10;12.40;;;3.80;99.90;;;;;;5025522;28;20067;-81
2021/03/08 09:54:59;;;;;;;27.38;10.70;;;3.80;99.90;;;;;;5024778;28;20037;-80
2021/03/08 09:57:36;;;;;;;16.50;7.90;;;3.70;99.90;;;;;;5024868;28;20038;-80
2021/03/08 10:00:05;;;;;;;22.58;10.82;;;3.70;99.90;;;;;;5024718;28;20056;-79
2021/03/08 10:02:31;;;;;;;20.75;9.82;;;3.50;99.90;;;;;;5022471;28;20033;-79
2021/03/08 10:04:58;;;;;;;16.90;9.10;;;3.40;99.90;;;;;;5026165;28;20033;-81
2021/03/08 10:07:25;;;;;;;14.68;7.25;;;3.50;99.90;;;;;;5026673;28;20128;-80
2021/03/08 10:10:14;;;;;;;15.00;8.15;;;3.60;99.90;;;;;;5027327;28;20521;-80
2021/03/08 10:12:41;;;;;;;18.40;9.23;;;3.60;99.90;;;;;;5028772;28;20049;-81
2021/03/08 10:15:10;;;;;;;21.63;11.02;;;3.50;99.90;;;;;;5026722;28;20045;-79
2021/03/08 10:17:57;;;;;;;21.98;11.30;;;3.40;99.90;;;;;;5026633;28;20072;-81
2021/03/08 10:20:23;;;;;;;25.38;13.30;;;3.30;99.90;;;;;;5026673;28;20073;-81
2021/03/08 10:22:49;;;;;;;27.30;13.90;;;3.40;99.90;;;;;;5023153;28;20124;-81
2021/03/08 10:29:05;;;;;;;33.47;15.50;;;3.00;99.90;;;;;;5023828;28;20045;-80
2021/03/08 10:31:32;;;;;;;34.58;16.90;;;3.10;99.90;;;;;;5022840;28;20562;-80
2021/03/08 10:34:10;;;;;;;40.20;18.85;;;3.20;99.90;;;;;;5026959;28;20144;-81
2021/03/08 10:36:38;;;;;;;38.33;17.98;;;3.10;99.90;;;;;;5036426;28;20464;-81
2021/03/08 10:39:09;;;;;;;38.47;16.92;;;3.10;99.90;;;;;;5026753;28;20037;-81
2021/03/08 10:41:37;;;;;;;40.05;19.42;;;3.30;99.90;;;;;;5041610;28;20059;-80
2021/03/08 10:44:05;;;;;;;34.42;17.52;;;3.50;99.90;;;;;;5045390;28;20482;-80
2021/03/08 10:46:35;;;;;;;46.63;23.30;;;3.80;99.90;;;;;;5034209;28;20044;-80
2021/03/08 10:49:08;;;;;;;35.83;18.33;;;4.10;99.90;;;;;;5032962;28;20124;-81
2021/03/08 10:51:35;;;;;;;31.33;15.90;;;4.30;99.90;;;;;;5043812;28;20045;-81
2021/03/08 10:54:03;;;;;;;28.45;14.95;;;4.50;99.90;;;;;;5028650;28;20042;-81
2021/03/08 10:56:30;;;;;;;24.48;12.25;;;4.30;99.90;;;;;;5025923;28;20613;-81
2021/03/08 10:58:58;;;;;;;34.83;16.98;;;4.20;99.90;;;;;;5032932;28;20033;-81
2021/03/08 11:01:25;;;;;;;35.78;18.88;;;4.10;99.90;;;;;;5046335;28;20046;-81
2021/03/08 11:03:51;;;;;;;41.08;21.73;;;4.10;99.90;;;;;;5031394;28;20677;-81
2021/03/08 11:06:19;;;;;;;29.58;15.88;;;4.40;99.90;;;;;;5025702;28;20116;-81
2021/03/08 11:09:28;;;;;;;32.70;15.38;;;4.50;99.90;;;;;;5025446;28;20095;-80
2021/03/08 11:11:53;;;;;;;31.67;15.07;;;4.40;99.90;;;;;;5000319;28;20053;-80
2021/03/08 11:14:20;;;;;;;36.78;16.38;;;4.20;99.90;;;;;;5025403;28;20044;-82
2021/03/08 11:16:58;;;;;;;28.98;13.25;;;4.10;99.90;;;;;;5024578;28;20049;-82
2021/03/08 11:19:28;;;;;;;27.00;14.00;;;3.90;99.90;;;;;;5022277;28;20045;-82
2021/03/08 11:22:14;;;;;;;28.45;14.25;;;3.80;99.90;;;;;;5025260;28;20052;-82
2021/03/08 11:24:48;;;;;;;24.05;12.48;;;3.70;99.90;;;;;;5025997;28;20042;-82
2021/03/08 11:27:24;;;;;;;17.30;8.55;;;3.80;99.90;;;;;;5026936;28;20048;-82
2021/03/08 11:30:00;;;;;;;15.65;7.20;;;3.70;99.90;;;;;;5025591;28;20048;-81
2021/03/08 11:32:28;;;;;;;17.48;8.63;;;3.80;99.90;;;;;;5023988;28;20045;-81
2021/03/08 11:34:54;;;;;;;15.10;8.15;;;4.00;99.90;;;;;;5034132;28;20678;-80
2021/03/08 11:37:23;;;;;;;15.98;9.10;;;4.10;99.90;;;;;;5022621;28;20483;-78
2021/03/08 11:39:51;;;;;;;19.13;8.63;;;4.10;99.90;;;;;;5025542;28;20749;-79
2021/03/08 11:42:19;;;;;;;14.55;7.05;;;4.10;99.90;;;;;;5017857;28;20077;-78
2021/03/08 11:44:46;;;;;;;13.65;6.22;;;4.10;99.90;;;;;;5022604;28;20053;-79
2021/03/08 11:47:13;;;;;;;12.15;5.80;;;4.00;99.90;;;;;;5038865;28;20045;-80
2021/03/08 11:49:40;;;;;;;12.45;6.00;;;4.10;99.90;;;;;;5028249;28;20060;-80
2021/03/08 11:52:07;;;;;;;10.38;5.68;;;4.20;99.90;;;;;;5032206;28;20608;-80
2021/03/08 11:54:33;;;;;;;11.95;5.15;;;4.30;99.90;;;;;;5031609;28;20502;-82
2021/03/08 11:57:00;;;;;;;9.52;4.22;;;4.50;99.90;;;;;;5022421;28;20055;-81
2021/03/08 11:59:28;;;;;;;8.18;3.55;;;4.50;99.90;;;;;;5023725;28;20029;-80
2021/03/08 12:01:54;;;;;;;5.65;3.13;;;4.60;99.90;;;;;;5026025;28;20048;-81
2021/03/08 12:04:20;;;;;;;8.05;3.17;;;4.60;99.90;;;;;;5034149;28;20123;-81
2021/03/08 12:06:46;;;;;;;6.90;3.70;;;4.70;99.60;;;;;;5023491;28;20065;-81
2021/03/08 12:09:12;;;;;;;6.35;3.20;;;4.60;99.90;;;;;;5026036;28;20045;-81
2021/03/08 12:11:38;;;;;;;5.40;3.17;;;4.70;99.90;;;;;;5041093;28;20045;-81
2021/03/08 12:14:05;;;;;;;7.35;3.88;;;4.70;99.30;;;;;;5040236;28;20632;-81
2021/03/08 12:16:30;;;;;;;10.23;5.00;;;4.30;99.60;;;;;;5026477;28;20045;-80
2021/03/08 12:18:56;;;;;;;8.35;4.40;;;4.20;99.90;;;;;;5021277;28;20041;-81
2021/03/08 12:21:24;;;;;;;8.25;3.90;;;4.20;99.90;;;;;;5027900;28;20037;-81
2021/03/08 12:23:50;;;;;;;7.93;4.72;;;4.10;99.70;;;;;;5027659;28;20136;-81
2021/03/08 12:26:16;;;;;;;10.77;5.03;;;3.90;99.90;;;;;;5026711;28;20041;-80
2021/03/08 12:28:42;;;;;;;12.77;7.30;;;3.80;99.90;;;;;;5027690;28;20127;-80
2021/03/08 12:31:08;;;;;;;12.77;6.97;;;3.60;99.90;;;;;;5027325;28;20036;-80
2021/03/08 12:33:37;;;;;;;13.45;6.68;;;3.50;99.90;;;;;;5027654;28;20049;-80
2021/03/08 12:36:07;;;;;;;12.13;6.85;;;3.40;99.90;;;;;;5042380;28;20103;-81
2021/03/08 12:38:34;;;;;;;11.93;6.97;;;3.40;99.90;;;;;;5027027;28;20202;-81
2021/03/08 12:41:04;;;;;;;11.95;6.47;;;3.50;99.90;;;;;;5045785;28;20044;-81
2021/03/08 12:43:30;;;;;;;23.05;12.70;;;3.70;99.90;;;;;;5047862;28;20374;-80
2021/03/08 12:45:56;;;;;;;34.72;20.27;;;3.70;99.90;;;;;;5028390;28;20045;-81
2021/03/08 12:48:22;;;;;;;16.30;9.50;;;3.80;99.90;;;;;;5026525;28;20048;-81
2021/03/08 12:50:48;;;;;;;16.48;8.18;;;3.80;99.90;;;;;;5038420;28;20044;-82
2021/03/08 12:53:14;;;;;;;15.55;8.55;;;3.80;99.90;;;;;;5035997;28;20096;-81
2021/03/08 12:55:41;;;;;;;20.35;10.13;;;3.80;99.90;;;;;;5027628;28;20091;-82
2021/03/08 12:58:07;;;;;;;17.85;8.88;;;3.80;99.90;;;;;;5024760;28;20045;-81